Time;durP1;ratioP1;P1;durP2;ratioP2;P2;SDS_P1;SDS_P2;PMS_P1;PMS_P2;Temp;Humidity;BMP_temperature;BMP_pressure;BME280_temperature;BME280_humidity;BME280_pressure;Samples;Min_cycle;Max_cycle;Signal;HPM_P1;HPM_P2
2021/01/08 00:00:30;;;;;;;3.40;2.55;;;;;;;5.79;64.93;100423.88;6188061;23;20053;-89
2021/01/08 00:02:56;;;;;;;3.58;2.83;;;;;;;4.73;64.97;100260.06;6188163;23;20025;-89
2021/01/08 00:05:22;;;;;;;2.97;2.47;;;;;;;5.80;64.58;100422.97;6214732;23;20036;-91
2021/01/08 00:07:48;;;;;;;3.67;2.83;;;;;;;5.99;65.15;100454.50;6189264;23;20441;-89
2021/01/08 00:14:09;;;;;;;3.00;2.63;;;;;;;6.12;65.32;100464.81;6219083;23;20039;-90
2021/01/08 00:16:50;;;;;;;3.90;2.88;;;;;;;6.09;65.09;100466.81;6169429;23;20028;-91
2021/01/08 00:19:16;;;;;;;4.25;3.10;;;;;;;4.35;65.12;100200.53;6189395;23;20028;-90
2021/01/08 00:21:57;;;;;;;3.72;2.90;;;;;;;4.64;64.68;100246.00;6190625;23;20115;-90
2021/01/08 00:24:23;;;;;;;4.25;2.60;;;;;;;5.69;64.92;100409.91;6188142;23;20099;-91
2021/01/08 00:26:49;;;;;;;3.25;2.67;;;;;;;4.14;64.88;100164.81;6189687;23;20047;-89
2021/01/08 00:29:16;;;;;;;3.03;2.60;;;;;;;5.99;64.48;100462.28;6164668;23;20044;-90
2021/01/08 00:31:52;;;;;;;3.85;2.50;;;;;;;5.67;65.23;100391.00;6163861;23;20063;-90
2021/01/08 00:34:19;;;;;;;3.10;2.67;;;;;;;3.24;65.39;100016.53;6190703;23;20060;-90
2021/01/08 01:13:39;;;;;;;1.75;1.65;;;;;;;5.79;65.58;100466.25;6215419;22;20036;-88
2021/01/08 01:19:09;;;;;;;1.75;1.63;;;;;;;4.33;64.65;100202.41;6217090;22;20449;-90
2021/01/08 01:21:50;;;;;;;;;;;;;;;6.12;64.48;100482.19;6176956;23;20051;-89
2021/01/08 01:24:31;;;;;;;1.50;1.35;;;;;;;4.81;64.60;100311.38;6184788;23;19919;-89
2021/01/08 01:27:12;;;;;;;1.52;1.42;;;;;;;5.94;65.60;100497.28;6168366;23;20396;-89
2021/01/08 12:03:45;;;;;;;7.05;4.35;;;;;;;6.06;67.00;100773.38;6222747;22;20025;-89
2021/01/08 12:42:47;;;;;;;5.10;4.20;;;;;;;6.10;66.36;100785.25;6186004;22;20025;-89
2021/01/08 12:45:28;;;;;;;4.45;3.65;;;;;;;5.96;66.24;100766.22;6174862;23;20031;-88
2021/01/08 12:47:54;;;;;;;4.63;3.42;;;;;;;6.09;66.07;100786.16;6189493;23;20517;-91
2021/01/08 12:50:20;;;;;;;4.45;3.72;;;;;;;5.71;66.74;100734.94;6193763;23;20043;-90
2021/01/08 12:53:39;;;;;;;4.93;4.05;;;;;;;6.24;65.97;100786.00;6192936;23;20515;-90
2021/01/08 13:17:28;;;;;;;4.20;3.75;;;;;;;6.25;65.59;100787.66;6217672;22;20028;-90
2021/01/08 13:19:55;;;;;;;6.40;4.75;;;;;;;5.98;65.74;100777.31;6188923;23;20099;-91
2021/01/08 13:22:37;;;;;;;4.47;3.88;;;;;;;5.22;66.64;100655.94;6215190;23;20024;-89
2021/01/08 13:25:17;;;;;;;5.20;4.45;;;;;;;6.10;66.27;100787.84;6196668;23;20036;-90
2021/01/08 13:27:44;;;;;;;4.70;4.05;;;;;;;5.98;66.60;100777.31;6171726;23;20027;-89
2021/01/08 13:30:21;;;;;;;4.68;3.78;;;;;;;4.88;66.17;100616.59;6192793;23;20069;-89
2021/01/08 13:32:47;;;;;;;4.68;3.95;;;;;;;5.24;65.69;100669.63;6190183;23;20359;-89
2021/01/08 13:35:29;;;;;;;4.65;3.78;;;;;;;5.57;66.14;100723.72;6193396;23;20095;-89
2021/01/08 13:37:55;;;;;;;5.65;4.20;;;;;;;6.11;65.76;100802.47;6165359;23;20027;-90
2021/01/08 13:40:29;;;;;;;4.97;3.80;;;;;;;5.97;66.51;100787.78;6192566;23;20020;-90
2021/01/08 13:43:09;;;;;;;4.38;3.72;;;;;;;5.99;65.95;100791.13;6170519;23;20099;-90
2021/01/08 13:45:42;;;;;;;4.72;3.88;;;;;;;6.22;65.63;100813.00;6190883;23;20028;-90
2021/01/08 13:48:18;;;;;;;4.03;3.63;;;;;;;6.24;65.72;100819.75;6166073;23;20016;-89
2021/01/08 13:50:58;;;;;;;5.05;3.80;;;;;;;6.11;66.02;100815.47;6171196;23;20021;-91
2021/01/08 13:53:24;;;;;;;4.15;3.75;;;;;;;5.73;65.55;100757.25;6189840;23;20032;-90
2021/01/08 13:55:50;;;;;;;4.32;3.92;;;;;;;5.85;66.38;100779.03;6164032;23;20028;-89
2021/01/08 13:58:31;;;;;;;4.00;3.45;;;;;;;4.27;65.58;100513.41;6174136;23;20453;-89
2021/01/08 14:00:58;;;;;;;4.55;4.03;;;;;;;5.72;65.64;100757.38;6190902;23;20051;-89
2021/01/08 14:03:24;;;;;;;5.15;4.20;;;;;;;5.96;65.50;100802.56;6167637;23;20016;-89
2021/01/08 14:05:52;;;;;;;3.95;3.53;;;;;;;4.64;65.88;100584.47;6168857;23;20024;-89
2021/01/08 14:08:18;;;;;;;5.53;3.80;;;;;;;3.68;65.46;100462.66;6191225;23;20028;-88
2021/01/08 14:10:44;;;;;;;4.95;3.70;;;;;;;5.71;65.79;100771.25;6193068;23;20052;-89
2021/01/08 14:13:10;;;;;;;5.47;3.63;;;;;;;5.84;65.52;100786.88;6196735;23;20017;-88
2021/01/08 14:15:36;;;;;;;4.53;3.33;;;;;;;5.45;65.55;100734.84;6190536;23;20021;-88
2021/01/08 14:18:03;;;;;;;4.22;3.50;;;;;;;5.86;65.94;100800.59;6186797;23;20025;-89
2021/01/08 14:20:29;;;;;;;4.07;3.67;;;;;;;5.62;65.84;100766.66;6186300;23;20326;-89
2021/01/08 14:23:09;;;;;;;4.15;3.50;;;;;;;6.09;65.58;100843.28;6183562;23;20083;-89
2021/01/08 14:25:50;;;;;;;4.72;3.50;;;;;;;5.95;65.72;100820.81;6186612;23;20020;-90
2021/01/08 14:28:38;;;;;;;4.22;3.50;;;;;;;6.07;66.33;100847.72;6184424;23;20021;-90
2021/01/08 14:31:32;;;;;;;4.47;3.38;;;;;;;5.86;65.65;100793.66;6142615;23;20013;-90
2021/01/08 14:34:16;;;;;;;3.72;3.17;;;;;;;5.87;65.79;100818.66;6186238;23;20025;-90
2021/01/08 14:36:58;;;;;;;5.60;3.60;;;;;;;5.95;65.31;100834.59;6183592;23;20024;-89
2021/01/08 14:39:40;;;;;;;3.70;3.10;;;;;;;5.96;66.39;100838.88;6184654;23;20361;-90
2021/01/08 14:42:20;;;;;;;4.50;3.45;;;;;;;5.94;66.10;100840.75;6184656;23;20027;-90
2021/01/08 14:44:47;;;;;;;4.07;3.30;;;;;;;5.82;65.72;100825.94;6183135;23;20078;-90
2021/01/08 14:47:13;;;;;;;4.40;3.55;;;;;;;5.53;65.75;100784.47;6184413;23;20028;-89
2021/01/08 14:49:39;;;;;;;5.00;3.70;;;;;;;5.29;66.00;100731.56;6184415;23;20096;-90
2021/01/08 14:52:05;;;;;;;4.50;3.78;;;;;;;4.73;66.53;100647.81;6187395;23;20096;-90
2021/01/08 14:54:31;;;;;;;4.75;3.53;;;;;;;3.84;65.38;100513.47;6183001;23;20028;-91
2021/01/08 14:56:58;;;;;;;3.67;3.20;;;;;;;5.70;65.86;100811.13;6185663;23;20032;-90
2021/01/08 14:59:25;;;;;;;5.53;3.75;;;;;;;6.03;65.48;100871.31;6184649;23;20051;-89
2021/01/08 15:02:05;;;;;;;4.15;3.58;;;;;;;6.03;66.07;100862.69;6181945;23;20021;-90
2021/01/08 15:04:32;;;;;;;4.38;3.63;;;;;;;3.95;65.59;100531.75;6187923;23;20099;-91
2021/01/08 15:06:59;;;;;;;4.43;3.72;;;;;;;5.91;65.63;100861.69;6163685;23;20063;-89
2021/01/08 15:09:25;;;;;;;5.53;3.88;;;;;;;5.79;65.53;100852.06;6187235;23;20025;-88
2021/01/08 15:11:51;;;;;;;3.80;3.15;;;;;;;5.82;65.72;100849.28;6186347;23;20024;-89
2021/01/08 15:14:17;;;;;;;3.90;3.53;;;;;;;5.69;66.03;100831.06;6187018;23;20025;-90
2021/01/08 15:29:47;;;;;;;5.07;3.63;;;;;;;5.89;65.68;100884.28;6191177;22;20103;-89
2021/01/08 15:32:15;;;;;;;4.15;3.60;;;;;;;5.71;65.57;100849.09;6161885;23;20068;-88
2021/01/08 15:34:41;;;;;;;4.57;3.67;;;;;;;4.51;65.69;100666.44;6137526;23;20021;-89
2021/01/08 15:37:07;;;;;;;4.45;3.90;;;;;;;2.03;65.61;100296.75;6160958;23;20017;-88
2021/01/08 15:39:33;;;;;;;4.75;4.25;;;;;;;4.70;65.79;100698.88;6162315;23;20021;-89
2021/01/08 15:42:01;;;;;;;5.68;3.72;;;;;;;5.97;65.74;100913.22;6161924;23;20056;-89
2021/01/08 15:44:28;;;;;;;6.00;3.90;;;;;;;2.14;64.96;100289.25;6161371;23;20073;-89
2021/01/08 15:46:54;;;;;;;5.05;3.83;;;;;;;3.42;65.31;100502.19;6164803;23;20084;-90
2021/01/08 15:49:20;;;;;;;4.93;3.80;;;;;;;3.08;65.50;100453.28;6162098;23;20021;-89
2021/01/08 15:51:48;;;;;;;4.63;3.67;;;;;;;5.45;65.94;100848.97;6186829;23;20013;-89
2021/01/08 15:54:29;;;;;;;4.13;3.65;;;;;;;4.75;65.81;100716.75;6166368;23;20104;-89
2021/01/08 15:57:09;;;;;;;4.57;3.78;;;;;;;2.77;65.10;100410.34;6168174;23;20560;-88
2021/01/08 15:59:35;;;;;;;4.28;3.75;;;;;;;5.86;65.92;100910.44;6162834;23;20401;-88
2021/01/08 16:02:02;;;;;;;3.85;3.45;;;;;;;5.85;66.45;100908.78;6161944;23;20024;-89
2021/01/08 16:04:28;;;;;;;4.90;3.95;;;;;;;3.71;65.04;100552.16;6161922;23;20079;-89
2021/01/08 16:06:54;;;;;;;4.35;3.75;;;;;;;5.81;65.95;100908.13;6136513;23;20036;-90
2021/01/08 16:09:20;;;;;;;4.38;3.53;;;;;;;5.71;65.28;100893.22;6160800;23;20029;-89
2021/01/08 16:11:49;;;;;;;4.28;3.25;;;;;;;5.89;65.27;100912.03;6163576;23;20401;-90
2021/01/08 16:14:16;;;;;;;3.67;3.17;;;;;;;3.03;65.13;100475.16;6113520;23;20027;-89
2021/01/08 16:16:43;;;;;;;3.75;3.20;;;;;;;3.19;65.76;100498.34;6164222;23;20052;-89
2021/01/08 16:19:09;;;;;;;7.38;4.00;;;;;;;5.89;65.69;100931.00;6160862;23;20046;-88
2021/01/08 16:21:36;;;;;;;4.22;3.20;;;;;;;5.71;65.79;100894.06;6161429;23;20352;-88
2021/01/08 16:24:02;;;;;;;4.20;3.75;;;;;;;5.80;65.70;100914.25;6161185;23;20029;-89
2021/01/08 16:26:43;;;;;;;3.75;3.17;;;;;;;5.40;65.61;100855.38;6162385;23;20025;-89
2021/01/08 16:29:09;;;;;;;4.63;3.45;;;;;;;5.35;65.24;100858.25;6159095;23;20382;-89
2021/01/08 16:35:23;;;;;;;4.28;3.30;;;;;;;2.17;64.74;100353.56;6221743;23;20087;-88
2021/01/08 16:37:51;;;;;;;4.30;3.47;;;;;;;3.80;65.39;100631.81;6217985;23;20028;-89
2021/01/08 16:40:33;;;;;;;4.82;3.60;;;;;;;5.78;66.38;100936.88;6193609;23;20027;-89
2021/01/08 16:43:05;;;;;;;4.68;3.53;;;;;;;5.82;66.09;100945.31;6147961;23;20028;-90
2021/01/08 16:45:49;;;;;;;4.25;3.70;;;;;;;5.77;66.20;100942.16;6173383;23;20051;-89
2021/01/08 16:48:15;;;;;;;4.10;3.53;;;;;;;5.76;65.27;100956.06;6192099;23;20100;-88
2021/01/08 16:54:28;;;;;;;3.78;3.22;;;;;;;5.26;65.83;100876.94;6224043;23;20031;-88
2021/01/08 17:10:47;;;;;;;6.85;4.40;;;;;;;5.52;65.39;100937.63;6214755;22;21694;-88
2021/01/08 17:13:27;;;;;;;4.20;3.53;;;;;;;5.75;65.28;100975.97;6167365;23;20056;-88
2021/01/08 17:16:08;;;;;;;4.30;3.50;;;;;;;5.49;66.04;100930.03;6164906;23;20108;-88
2021/01/08 17:18:43;;;;;;;4.50;3.92;;;;;;;5.80;65.59;100980.91;6188799;23;20052;-89
2021/01/08 17:39:01;;;;;;;4.05;3.35;;;;;;;5.78;66.59;100996.56;6188158;22;20029;-88
2021/01/08 17:41:32;;;;;;;4.65;3.63;;;;;;;5.84;65.86;101000.53;6114701;23;20017;-88
2021/01/08 21:11:27;;;;;;;4.45;3.42;;;;;;;5.45;66.08;101123.91;6220093;22;20033;-88
2021/01/08 21:14:08;;;;;;;4.65;3.85;;;;;;;5.73;67.22;101167.28;6140973;23;20031;-88
2021/01/08 21:16:51;;;;;;;4.30;3.90;;;;;;;5.79;66.12;101158.28;6118677;23;20393;-89
2021/01/08 21:19:32;;;;;;;4.82;3.55;;;;;;;5.64;66.35;101148.81;6140983;23;20028;-88
2021/01/08 21:22:33;;;;;;;5.97;4.10;;;;;;;5.77;66.22;101162.75;6159846;23;20032;-88
2021/01/08 21:25:33;;;;;;;4.45;3.75;;;;;;;5.16;66.52;101072.91;6172240;23;20031;-89
2021/01/08 21:28:14;;;;;;;4.60;3.95;;;;;;;5.02;66.23;101053.75;6143627;23;20103;-89
2021/01/08 21:30:54;;;;;;;5.32;4.15;;;;;;;5.66;66.86;101162.53;6163533;23;20017;-89
2021/01/08 21:37:29;;;;;;;6.38;4.03;;;;;;;5.90;66.20;101176.66;6203850;22;20607;-89
2021/01/08 21:40:30;;;;;;;4.63;3.92;;;;;;;5.68;66.42;101165.88;6200387;23;20020;-89
2021/01/08 21:43:29;;;;;;;4.32;3.70;;;;;;;5.95;66.26;101181.63;6217915;23;20032;-87
2021/01/08 21:46:09;;;;;;;5.35;4.00;;;;;;;5.54;66.24;101144.16;6172325;23;20063;-88
2021/01/08 21:48:35;;;;;;;4.93;3.97;;;;;;;5.79;66.46;101184.25;6192652;23;20028;-88
2021/01/08 21:51:02;;;;;;;5.43;4.55;;;;;;;4.27;65.54;100940.53;6192915;23;20020;-88
2021/01/08 21:53:43;;;;;;;5.18;3.90;;;;;;;5.47;66.88;101127.25;6171700;23;20064;-89
2021/01/08 21:56:26;;;;;;;5.88;4.50;;;;;;;5.82;66.21;101197.06;6171517;23;20551;-88
2021/01/08 21:59:06;;;;;;;4.60;3.63;;;;;;;5.81;66.94;101191.03;6171834;23;20512;-88
2021/01/08 22:01:34;;;;;;;6.18;4.28;;;;;;;5.82;66.48;101197.06;6167692;23;20075;-89
2021/01/08 22:04:14;;;;;;;4.90;4.13;;;;;;;5.17;66.29;101084.91;6170251;23;20027;-90
2021/01/08 22:06:41;;;;;;;4.70;4.00;;;;;;;5.41;65.94;101138.00;6190245;23;20033;-89
2021/01/08 22:09:12;;;;;;;5.40;4.22;;;;;;;5.30;66.42;101119.63;6187058;23;20055;-89
2021/01/08 22:11:39;;;;;;;5.88;4.75;;;;;;;3.63;65.98;100847.44;6187021;23;20043;-90
2021/01/08 22:14:20;;;;;;;5.35;3.90;;;;;;;5.59;66.23;101162.88;6189218;23;20024;-89
2021/01/08 22:16:47;;;;;;;5.38;3.85;;;;;;;5.25;66.65;101119.03;6187072;23;20048;-89
2021/01/08 22:19:27;;;;;;;5.00;4.07;;;;;;;5.84;66.31;101205.59;6191089;23;20020;-89
2021/01/08 22:22:08;;;;;;;4.68;3.85;;;;;;;5.41;66.29;101142.34;6146582;23;20021;-89
2021/01/08 22:24:35;;;;;;;5.22;4.30;;;;;;;5.85;66.38;101209.00;6187739;23;20016;-90
2021/01/08 22:27:01;;;;;;;4.78;4.20;;;;;;;5.85;66.28;101207.28;6188235;23;20063;-88
2021/01/08 22:29:27;;;;;;;5.35;4.13;;;;;;;5.52;66.54;101160.72;6188031;23;20051;-89
2021/01/08 22:31:53;;;;;;;5.18;4.22;;;;;;;5.53;66.40;101152.84;6187481;23;20048;-89
2021/01/08 22:34:19;;;;;;;4.97;4.30;;;;;;;5.81;66.47;101205.75;6187029;23;20023;-89
2021/01/08 22:36:49;;;;;;;6.03;4.30;;;;;;;5.93;66.05;101209.41;6186754;23;20048;-88
2021/01/08 22:39:15;;;;;;;6.15;4.50;;;;;;;5.64;66.65;101190.31;6162172;23;20385;-88
2021/01/08 22:41:42;;;;;;;5.30;4.53;;;;;;;5.63;66.53;101192.09;6187629;23;20111;-89
2021/01/08 22:44:08;;;;;;;6.13;4.15;;;;;;;5.33;65.90;101135.00;6185470;23;20112;-89
2021/01/08 22:46:36;;;;;;;5.78;4.32;;;;;;;5.31;66.72;101129.06;6187317;23;20031;-88
2021/01/08 22:49:03;;;;;;;5.55;4.20;;;;;;;5.52;65.94;101176.31;6187315;23;20496;-89
2021/01/08 22:51:30;;;;;;;5.25;4.05;;;;;;;5.87;66.72;101220.97;6186618;23;20121;-89
2021/01/08 22:53:57;;;;;;;6.65;4.15;;;;;;;5.25;65.94;101126.81;6186290;23;20088;-89
2021/01/08 22:56:25;;;;;;;5.32;3.97;;;;;;;5.50;66.77;101170.34;6138465;23;20088;-87
2021/01/08 22:58:52;;;;;;;4.90;4.40;;;;;;;5.87;66.88;101233.97;6187428;23;20028;-88
2021/01/08 23:01:21;;;;;;;6.93;4.80;;;;;;;5.75;66.09;101213.91;6163268;23;20040;-88
2021/01/08 23:03:49;;;;;;;5.47;4.30;;;;;;;5.58;66.14;101181.13;6186025;23;20395;-89
2021/01/08 23:06:15;;;;;;;4.75;3.85;;;;;;;5.26;65.58;101138.84;6185331;23;20064;-88
2021/01/08 23:08:43;;;;;;;5.18;4.25;;;;;;;5.58;65.65;101184.56;6164472;23;20052;-88
2021/01/08 23:11:09;;;;;;;5.60;4.63;;;;;;;3.80;65.81;100890.47;6163669;23;20012;-89
2021/01/08 23:13:36;;;;;;;5.18;4.10;;;;;;;5.41;66.61;101173.47;6186799;23;20086;-89
2021/01/08 23:16:03;;;;;;;5.45;4.20;;;;;;;5.88;66.07;101235.66;6189550;23;20060;-89
2021/01/08 23:18:31;;;;;;;6.47;4.63;;;;;;;5.86;66.37;101237.50;6161943;23;20083;-89
2021/01/08 23:21:13;;;;;;;4.63;4.00;;;;;;;5.85;66.36;101235.81;6147201;23;20464;-89
2021/01/08 23:23:56;;;;;;;4.65;4.03;;;;;;;5.75;66.21;101227.72;6147581;23;20025;-88
2021/01/08 23:35:22;;;;;;;5.50;4.18;;;;;;;2.45;65.49;100727.88;6278239;22;20020;-88
2021/01/08 23:38:06;;;;;;;5.07;4.15;;;;;;;4.99;66.56;101098.00;6253515;22;20118;-88
2021/01/08 23:40:33;;;;;;;5.85;4.45;;;;;;;5.86;66.35;101258.25;6225725;22;20023;-90
2021/01/08 23:43:15;;;;;;;5.65;4.32;;;;;;;5.28;66.40;101163.78;6251962;22;20383;-90
2021/01/08 23:46:00;;;;;;;5.03;4.03;;;;;;;5.76;65.84;101239.78;6231310;22;20051;-89
2021/01/08 23:48:41;;;;;;;6.25;4.57;;;;;;;5.88;65.84;101261.59;6253210;22;20031;-89
2021/01/08 23:51:21;;;;;;;4.88;3.92;;;;;;;5.20;65.73;101154.75;6208750;22;20039;-89
2021/01/08 23:53:48;;;;;;;5.32;4.43;;;;;;;5.58;66.84;101214.88;6250651;22;20379;-88
2021/01/08 23:56:28;;;;;;;6.18;4.80;;;;;;;5.59;66.27;101214.75;6230456;22;20028;-87
2021/01/08 23:59:09;;;;;;;4.72;4.13;;;;;;;5.53;65.67;101225.50;6254394;22;20321;-89
